createdAt,value
2017-07-17T14:27:21.540Z,22.09
2017-07-17T14:28:12.115Z,22.08
2017-07-17T14:29:12.427Z,22.08
2017-07-17T14:30:12.142Z,22.07
2017-07-17T14:31:12.172Z,22.04
2017-07-17T14:32:12.400Z,21.93
2017-07-17T14:33:12.127Z,21.90
2017-07-17T14:34:12.430Z,21.88
2017-07-17T14:35:12.148Z,21.82
2017-07-17T14:36:12.145Z,21.83
2017-07-17T14:37:12.161Z,21.80
2017-07-17T14:38:12.170Z,21.79
2017-07-17T14:39:12.425Z,21.82
2017-07-17T14:40:12.151Z,21.81
2017-07-17T14:41:12.151Z,21.83
2017-07-17T14:42:12.139Z,21.83
2017-07-17T14:43:12.165Z,21.86
2017-07-17T14:44:12.457Z,21.93
2017-07-17T14:45:12.161Z,21.98
2017-07-17T14:46:12.176Z,22.08
2017-07-17T14:47:12.439Z,22.19
2017-07-17T14:48:12.222Z,22.28
2017-07-17T14:49:12.470Z,22.30
2017-07-17T14:50:12.158Z,22.25
2017-07-17T14:51:12.257Z,22.29
2017-07-17T14:52:12.186Z,22.29
2017-07-17T14:53:12.261Z,22.25
2017-07-17T14:54:12.479Z,22.28
2017-07-17T14:55:12.207Z,22.24
2017-07-17T14:56:12.190Z,22.19
2017-07-17T14:57:12.207Z,22.03
2017-07-17T14:58:12.220Z,21.89
2017-07-17T14:59:12.478Z,21.83
2017-07-17T15:00:12.280Z,21.85
2017-07-17T15:01:12.279Z,21.85
2017-07-17T15:02:12.565Z,21.87
2017-07-17T15:03:12.439Z,21.87
2017-07-17T15:04:12.502Z,21.86
2017-07-17T15:05:12.217Z,21.81
2017-07-17T15:06:12.224Z,21.78
2017-07-17T15:07:12.249Z,21.85
2017-07-17T15:08:12.235Z,21.88
2017-07-17T15:09:12.517Z,21.94
2017-07-17T15:10:12.291Z,21.98
2017-07-17T15:11:12.299Z,22.01
2017-07-17T15:12:12.295Z,22.08
2017-07-17T15:13:12.581Z,22.10
2017-07-17T15:14:12.531Z,22.10
2017-07-17T15:15:12.272Z,22.09
2017-07-17T15:16:12.276Z,22.07
2017-07-17T15:17:12.589Z,22.19
2017-07-17T15:18:12.264Z,22.30
2017-07-17T15:19:12.574Z,22.38
2017-07-17T15:20:12.276Z,22.40
2017-07-17T15:21:12.267Z,22.45
2017-07-17T15:22:12.266Z,22.48
2017-07-17T15:23:12.314Z,22.54
2017-07-17T15:24:12.289Z,22.64
2017-07-17T15:26:52.097Z,22.72
2017-07-17T15:27:21.654Z,22.78
2017-07-17T15:28:12.183Z,22.83
2017-07-17T15:29:12.182Z,22.92
2017-07-17T15:30:12.188Z,22.97
2017-07-17T15:31:12.190Z,22.98
2017-07-17T15:32:12.196Z,22.89
2017-07-17T15:33:12.195Z,22.81
2017-07-17T15:34:12.224Z,22.62
2017-07-17T15:35:12.218Z,22.59
2017-07-17T15:36:12.206Z,22.51
2017-07-17T15:37:12.207Z,22.44
2017-07-17T15:38:12.227Z,22.35
2017-07-17T15:39:12.213Z,22.20
2017-07-17T15:40:12.216Z,22.14
2017-07-17T15:41:12.222Z,22.05
2017-07-17T15:42:12.240Z,21.99
2017-07-17T15:43:15.590Z,21.98
2017-07-17T15:44:12.226Z,21.98
2017-07-17T15:45:12.277Z,22.02
2017-07-17T15:46:12.329Z,22.02
2017-07-17T15:47:12.306Z,22.06
2017-07-17T15:48:12.255Z,22.10
2017-07-17T15:49:12.328Z,22.12
2017-07-17T15:50:12.250Z,22.17
2017-07-17T15:51:12.247Z,22.23
2017-07-17T15:52:12.249Z,22.26
2017-07-17T15:53:12.263Z,22.24
2017-07-17T15:54:12.258Z,22.13
2017-07-17T15:55:12.279Z,22.10
2017-07-17T15:56:12.258Z,22.06
2017-07-17T15:57:12.265Z,22.05
2017-07-17T15:58:12.269Z,22.07
2017-07-17T15:59:12.269Z,22.05
2017-07-17T16:00:12.350Z,22.02
2017-07-17T16:01:12.333Z,21.98
2017-07-17T16:02:12.278Z,21.98
2017-07-17T16:03:12.278Z,21.97
2017-07-17T16:04:12.282Z,21.99
2017-07-17T16:05:12.286Z,22.04
2017-07-17T16:06:12.290Z,22.10
2017-07-17T16:07:12.291Z,22.14
2017-07-17T16:08:12.298Z,22.17
2017-07-17T16:09:12.297Z,22.19
2017-07-17T16:10:12.312Z,22.17
2017-07-17T16:11:12.309Z,22.16
2017-07-17T16:12:12.307Z,22.17
2017-07-17T16:13:12.307Z,22.17
2017-07-17T16:14:12.312Z,22.17
2017-07-17T16:15:12.317Z,22.19
2017-07-17T16:16:12.316Z,22.17
2017-07-17T16:17:12.432Z,22.20
2017-07-17T16:18:12.330Z,22.17
2017-07-17T16:19:12.323Z,22.21
2017-07-17T16:20:12.332Z,22.23
2017-07-17T16:21:12.644Z,22.28
2017-07-17T16:22:12.335Z,22.32
2017-07-17T16:23:12.382Z,22.33
2017-07-17T16:24:12.346Z,22.36
2017-07-17T16:25:12.349Z,22.33
2017-07-17T16:26:12.349Z,22.30
2017-07-17T16:27:12.349Z,22.26
2017-07-17T16:28:12.353Z,22.25
2017-07-17T16:29:12.358Z,22.19
2017-07-17T16:30:12.387Z,22.18
2017-07-17T16:31:12.435Z,22.17
2017-07-17T16:32:12.368Z,22.17
2017-07-17T16:33:12.382Z,22.17
2017-07-17T16:34:12.372Z,22.18
2017-07-17T16:35:12.432Z,22.16
2017-07-17T16:36:12.375Z,22.17
2017-07-17T16:37:12.378Z,22.19
2017-07-17T16:38:12.382Z,22.21
2017-07-17T16:39:12.390Z,22.23
2017-07-17T16:40:12.386Z,22.24
2017-07-17T16:41:12.390Z,22.18
2017-07-17T16:42:12.391Z,22.17
2017-07-17T16:43:12.397Z,22.14
2017-07-17T16:44:12.406Z,22.11
2017-07-17T16:45:12.405Z,22.06
2017-07-17T16:46:12.404Z,22.00
2017-07-17T16:47:12.407Z,21.96
2017-07-17T16:48:12.406Z,21.91
2017-07-17T16:49:12.412Z,21.85
2017-07-17T16:50:12.425Z,21.83
2017-07-17T16:51:12.426Z,21.84
2017-07-17T16:52:12.421Z,21.85
2017-07-17T16:53:12.422Z,21.82
2017-07-17T16:54:12.426Z,21.79
2017-07-17T16:55:12.429Z,21.78
2017-07-17T16:56:12.430Z,21.76
2017-07-17T16:57:12.436Z,21.76
2017-07-17T16:58:12.437Z,21.76
2017-07-17T16:59:12.455Z,21.78
2017-07-17T17:00:12.452Z,21.80
2017-07-17T17:01:12.445Z,21.83
2017-07-17T17:02:12.472Z,21.82
2017-07-17T17:03:12.500Z,21.84
2017-07-17T17:04:12.456Z,21.85
2017-07-17T17:05:12.472Z,21.85
2017-07-17T17:06:12.482Z,21.86
2017-07-17T17:07:12.463Z,21.87
2017-07-17T17:08:12.466Z,21.85
2017-07-17T17:09:12.474Z,21.83
2017-07-17T17:10:12.474Z,21.85
2017-07-17T17:11:12.474Z,21.86
2017-07-17T17:12:12.478Z,21.80
2017-07-17T17:13:12.481Z,21.78
2017-07-17T17:14:12.482Z,21.76
2017-07-17T17:15:12.485Z,21.69
2017-07-17T17:15:18.956Z,21.69
2017-07-17T17:16:12.487Z,21.65
2017-07-17T17:17:12.494Z,21.58
2017-07-17T17:18:12.500Z,21.54
2017-07-17T17:19:12.496Z,21.55
2017-07-17T17:20:12.501Z,21.58
2017-07-17T17:21:12.508Z,21.61
2017-07-17T17:22:12.529Z,21.62
2017-07-17T17:23:12.512Z,21.59
2017-07-17T17:24:12.515Z,21.60
2017-07-17T17:25:12.525Z,21.57
2017-07-17T17:26:12.513Z,21.56
2017-07-17T17:27:12.525Z,21.53
2017-07-17T17:28:12.520Z,21.52
2017-07-17T17:29:12.531Z,21.51
2017-07-17T17:30:12.535Z,21.49
2017-07-17T17:31:12.530Z,21.48
2017-07-17T17:32:12.591Z,21.46
2017-07-17T17:33:12.542Z,21.48
2017-07-17T17:34:12.538Z,21.48
2017-07-17T17:35:12.546Z,21.50
2017-07-17T17:36:12.543Z,21.48
2017-07-17T17:37:12.551Z,21.42
2017-07-17T17:38:12.664Z,21.43
2017-07-17T17:39:12.550Z,21.44
2017-07-17T17:40:12.558Z,21.46
2017-07-17T17:41:12.557Z,21.46
2017-07-17T17:42:12.563Z,21.46
2017-07-17T17:43:12.566Z,21.44
2017-07-17T17:44:12.569Z,21.46
2017-07-17T17:45:12.578Z,21.44
2017-07-17T17:46:12.575Z,21.45
2017-07-17T17:47:12.979Z,21.45
2017-07-17T17:48:12.620Z,21.43
2017-07-17T17:49:12.616Z,21.40
2017-07-17T17:50:12.596Z,21.42
2017-07-17T17:51:12.584Z,21.41
2017-07-17T17:52:12.589Z,21.42
2017-07-17T17:53:12.596Z,21.44
2017-07-17T17:54:12.604Z,21.44
2017-07-17T17:55:12.617Z,21.43
2017-07-17T17:56:12.604Z,21.44
2017-07-17T17:57:12.611Z,21.45
2017-07-17T17:58:12.625Z,21.44
2017-07-17T17:59:12.651Z,21.46
2017-07-17T18:00:12.611Z,21.49
2017-07-17T18:01:12.614Z,21.50
2017-07-17T18:02:12.619Z,21.51
2017-07-17T18:03:12.659Z,21.54
2017-07-17T18:04:12.622Z,21.53
2017-07-17T18:05:12.664Z,21.51
2017-07-17T18:06:12.629Z,21.48
2017-07-17T18:07:12.641Z,21.48
2017-07-17T18:08:12.636Z,21.46
2017-07-17T18:09:12.637Z,21.47
2017-07-17T18:10:12.640Z,21.47
2017-07-17T18:11:12.643Z,21.45
2017-07-17T18:12:12.647Z,21.42
2017-07-17T18:13:12.647Z,21.39
2017-07-17T18:14:12.652Z,21.38
2017-07-17T18:15:12.656Z,21.36
2017-07-17T18:16:12.658Z,21.35
2017-07-17T18:17:12.670Z,21.34
2017-07-17T18:18:12.665Z,21.36
2017-07-17T18:19:12.677Z,21.38
2017-07-17T18:20:12.664Z,21.39
2017-07-17T18:21:12.678Z,21.39
2017-07-17T18:22:12.675Z,21.35
2017-07-17T18:23:12.692Z,21.31
2017-07-17T18:24:12.677Z,21.29
2017-07-17T18:25:12.682Z,21.30
2017-07-17T18:26:12.704Z,21.29
2017-07-17T18:27:12.686Z,21.32
2017-07-17T18:28:12.695Z,21.32
2017-07-17T18:29:12.693Z,21.32
2017-07-17T18:30:12.701Z,21.32
2017-07-17T18:31:12.702Z,21.26
2017-07-17T18:32:12.702Z,21.24
2017-07-17T18:33:12.705Z,21.24
2017-07-17T18:34:12.721Z,21.25
2017-07-17T18:35:12.713Z,21.22
2017-07-17T18:36:12.714Z,21.23
2017-07-17T18:37:12.716Z,21.23
2017-07-17T18:38:12.727Z,21.19
2017-07-17T18:39:12.727Z,21.18
2017-07-17T18:40:12.726Z,21.18
2017-07-17T18:41:12.727Z,21.19
2017-07-17T18:42:12.734Z,21.21
2017-07-17T18:43:12.734Z,21.19
2017-07-17T18:44:12.736Z,21.15
2017-07-17T18:45:12.741Z,21.15
2017-07-17T18:46:12.781Z,21.12
2017-07-17T18:47:12.744Z,21.08
2017-07-17T18:48:12.752Z,21.05
2017-07-17T18:49:12.750Z,21.05
2017-07-17T18:50:12.793Z,21.04
2017-07-17T18:51:12.756Z,21.07
2017-07-17T18:52:12.760Z,21.07
2017-07-17T18:53:12.768Z,21.08
2017-07-17T18:54:12.769Z,21.07
2017-07-17T18:55:12.767Z,21.06
2017-07-17T18:56:12.772Z,21.04
2017-07-17T18:57:12.774Z,21.02
2017-07-17T18:58:12.784Z,21.02
2017-07-17T18:59:12.781Z,21.01
2017-07-17T19:00:12.831Z,21.00
2017-07-17T19:01:12.807Z,20.98
2017-07-17T19:02:12.791Z,20.96
2017-07-17T19:03:12.790Z,20.97
2017-07-17T19:04:12.821Z,20.95
2017-07-17T19:05:12.807Z,20.91
2017-07-17T19:06:12.800Z,20.91
2017-07-17T19:07:12.802Z,20.90
2017-07-17T19:08:12.806Z,20.89
2017-07-17T19:09:12.807Z,20.88
2017-07-17T19:10:12.816Z,20.88
2017-07-17T19:11:12.826Z,20.84
2017-07-17T19:12:12.816Z,20.83
2017-07-17T19:13:12.821Z,20.82
2017-07-17T19:14:12.821Z,20.80
2017-07-17T19:15:12.824Z,20.79
2017-07-17T19:16:12.843Z,20.77
2017-07-17T19:17:12.833Z,20.76
2017-07-17T19:18:12.832Z,20.74
2017-07-17T19:19:12.835Z,20.73
2017-07-17T19:20:12.842Z,20.73
2017-07-17T19:21:12.847Z,20.73
2017-07-17T19:22:12.845Z,20.72
2017-07-17T19:23:12.845Z,20.72
2017-07-17T19:24:12.852Z,20.70
2017-07-17T19:25:12.865Z,20.71
2017-07-17T19:26:12.856Z,20.69
2017-07-17T19:27:12.858Z,20.69
2017-07-17T19:28:12.863Z,20.69
2017-07-17T19:29:12.878Z,20.68
2017-07-17T19:30:12.866Z,20.66
2017-07-17T19:31:12.872Z,20.65
2017-07-17T19:32:12.875Z,20.65
2017-07-17T19:33:12.876Z,20.62
2017-07-17T19:34:12.877Z,20.61
2017-07-17T19:35:12.881Z,20.61
2017-07-17T19:36:12.920Z,20.61
2017-07-17T19:37:12.908Z,20.61
2017-07-17T19:38:12.897Z,20.61
2017-07-17T19:39:12.906Z,20.62
2017-07-17T19:40:12.902Z,20.62
2017-07-17T19:41:12.901Z,20.60
2017-07-17T19:42:12.904Z,20.59
2017-07-17T19:43:12.916Z,20.60
2017-07-17T19:44:12.907Z,20.61
2017-07-17T19:45:12.910Z,20.61
2017-07-17T19:46:13.013Z,20.60
2017-07-17T19:47:12.916Z,20.62
2017-07-17T19:48:12.919Z,20.62
2017-07-17T19:49:12.920Z,20.62
2017-07-17T19:50:12.930Z,20.61
2017-07-17T19:51:12.930Z,20.60
2017-07-17T19:52:12.931Z,20.60
2017-07-17T19:53:12.930Z,20.60
2017-07-17T19:54:12.934Z,20.57
2017-07-17T19:55:12.937Z,20.56
2017-07-17T19:56:12.947Z,20.55
2017-07-17T19:57:12.943Z,20.55
2017-07-17T19:58:12.947Z,20.54
2017-07-17T19:59:12.954Z,20.52
2017-07-17T20:00:12.955Z,20.52
2017-07-17T20:01:12.956Z,20.51
2017-07-17T20:02:12.962Z,20.51
2017-07-17T20:03:12.961Z,20.48
2017-07-17T20:04:12.963Z,20.50
2017-07-17T20:05:12.972Z,20.50
2017-07-17T20:06:12.971Z,20.51
2017-07-17T20:07:12.973Z,20.50
2017-07-17T20:08:13.014Z,20.50
2017-07-17T20:09:12.983Z,20.49
2017-07-17T20:10:12.982Z,20.50
2017-07-17T20:11:13.014Z,20.49
2017-07-17T20:12:12.985Z,20.47
2017-07-17T20:13:12.988Z,20.44
2017-07-17T20:14:12.994Z,20.43
2017-07-17T20:15:12.995Z,20.43
2017-07-17T20:16:13.000Z,20.41
2017-07-17T20:17:13.023Z,20.40
2017-07-17T20:18:13.075Z,20.40
2017-07-17T20:19:13.007Z,20.39
2017-07-17T20:20:13.008Z,20.38
2017-07-17T20:21:13.016Z,20.37
2017-07-17T20:22:13.014Z,20.36
2017-07-17T20:23:13.018Z,20.37
2017-07-17T20:24:13.023Z,20.39
2017-07-17T20:25:13.025Z,20.40
2017-07-17T20:26:13.032Z,20.38
2017-07-17T20:27:13.036Z,20.38
2017-07-17T20:28:13.038Z,20.37
2017-07-17T20:29:13.094Z,20.37
2017-07-17T20:30:13.059Z,20.37
2017-07-17T20:31:13.041Z,20.36
2017-07-17T20:32:13.043Z,20.36
2017-07-17T20:33:13.046Z,20.35
2017-07-17T20:34:13.051Z,20.35
2017-07-17T20:35:13.053Z,20.34
2017-07-17T20:36:13.056Z,20.34
2017-07-17T20:37:13.062Z,20.34
2017-07-17T20:38:13.062Z,20.32
2017-07-17T20:39:13.081Z,20.31
2017-07-17T20:40:13.086Z,20.29
2017-07-17T20:41:13.094Z,20.26
2017-07-17T20:42:13.073Z,20.25
2017-07-17T20:43:13.092Z,20.23
2017-07-17T20:44:13.079Z,20.23
2017-07-17T20:45:13.082Z,20.21
2017-07-17T20:46:13.103Z,20.20
2017-07-17T20:47:13.106Z,20.18
2017-07-17T20:48:13.091Z,20.16
2017-07-17T20:49:13.096Z,20.15
2017-07-17T20:50:13.099Z,20.14
2017-07-17T20:51:13.098Z,20.11
2017-07-17T20:52:13.105Z,20.10
2017-07-17T20:53:13.104Z,20.11
2017-07-17T20:54:13.162Z,20.10
2017-07-17T20:55:13.175Z,20.10
2017-07-17T20:56:13.115Z,20.07
2017-07-17T20:57:13.117Z,20.06
2017-07-17T20:58:13.120Z,20.05
2017-07-17T20:59:13.122Z,20.03
2017-07-17T21:00:13.132Z,20.03
2017-07-17T21:01:13.128Z,20.01
2017-07-17T21:02:13.137Z,20.00
2017-07-17T21:03:13.135Z,20.02
2017-07-17T21:04:13.136Z,20.03
2017-07-17T21:05:13.141Z,20.03
2017-07-17T21:06:13.144Z,20.02
2017-07-17T21:07:13.189Z,20.01
2017-07-17T21:08:13.144Z,20.00
2017-07-17T21:09:13.154Z,20.00
2017-07-17T21:10:13.155Z,19.98
2017-07-17T21:11:13.154Z,19.97
2017-07-17T21:12:13.158Z,19.97
2017-07-17T21:13:13.162Z,19.96
2017-07-17T21:14:13.171Z,19.96
2017-07-17T21:15:13.169Z,19.97
2017-07-17T21:16:13.176Z,19.97
2017-07-17T21:17:13.174Z,19.95
2017-07-17T21:18:13.178Z,19.97
2017-07-17T21:19:13.191Z,19.97
2017-07-17T21:20:13.188Z,19.97
2017-07-17T21:21:13.189Z,19.96
2017-07-17T21:22:13.188Z,19.96
2017-07-17T21:23:13.191Z,19.95
2017-07-17T21:24:13.304Z,19.93
2017-07-17T21:25:13.204Z,19.90
2017-07-17T21:26:13.224Z,19.90
2017-07-17T21:27:13.204Z,19.89
2017-07-17T21:28:13.206Z,19.88
2017-07-17T21:29:13.208Z,19.87
2017-07-17T21:30:13.210Z,19.89
2017-07-17T21:31:13.219Z,19.88
2017-07-17T21:32:13.218Z,19.90
2017-07-17T21:33:13.224Z,19.89
2017-07-17T21:34:13.225Z,19.91
2017-07-17T21:35:13.224Z,19.92
2017-07-17T21:36:13.229Z,19.92
2017-07-17T21:37:13.245Z,19.89
2017-07-17T21:38:13.236Z,19.86
2017-07-17T21:39:13.234Z,19.85
2017-07-17T21:40:13.239Z,19.84
2017-07-17T21:41:13.244Z,19.85
2017-07-17T21:42:13.246Z,19.84
2017-07-17T21:43:13.250Z,19.83
2017-07-17T21:44:13.253Z,19.83
2017-07-17T21:45:13.264Z,19.82
2017-07-17T21:46:13.262Z,19.83
2017-07-17T21:47:13.260Z,19.84
2017-07-17T21:48:13.265Z,19.84
2017-07-17T21:49:13.330Z,19.83
2017-07-17T21:50:13.267Z,19.82
2017-07-17T21:51:13.272Z,19.82
2017-07-17T21:52:13.281Z,19.81
2017-07-17T21:53:13.282Z,19.78
2017-07-17T21:54:13.280Z,19.78
2017-07-17T21:55:13.320Z,19.75
2017-07-17T21:56:13.285Z,19.75
2017-07-17T21:57:13.290Z,19.75
2017-07-17T21:58:13.292Z,19.76
2017-07-17T21:59:13.296Z,19.75
2017-07-17T22:00:13.298Z,19.75
2017-07-17T22:01:13.299Z,19.76
2017-07-17T22:02:13.304Z,19.75
2017-07-17T22:03:13.305Z,19.75
2017-07-17T22:04:13.314Z,19.74
2017-07-17T22:05:13.310Z,19.73
2017-07-17T22:06:13.363Z,19.72
2017-07-17T22:07:13.319Z,19.71
2017-07-17T22:08:13.317Z,19.71
2017-07-17T22:09:13.323Z,19.69
2017-07-17T22:10:13.329Z,19.68
2017-07-17T22:11:13.329Z,19.68
2017-07-17T22:12:13.331Z,19.69
2017-07-17T22:13:13.332Z,19.70
2017-07-17T22:14:13.337Z,19.71
2017-07-17T22:15:13.340Z,19.70
2017-07-17T22:16:13.343Z,19.70
2017-07-17T22:17:13.350Z,19.71
2017-07-17T22:18:13.346Z,19.71
2017-07-17T22:19:13.351Z,19.71
2017-07-17T22:20:13.353Z,19.73
2017-07-17T22:21:13.356Z,19.74
2017-07-17T22:22:13.359Z,19.74
2017-07-17T22:23:13.360Z,19.74
2017-07-17T22:24:13.365Z,19.74
2017-07-17T22:25:13.365Z,19.72
2017-07-17T22:26:13.374Z,19.72
2017-07-17T22:27:13.375Z,19.70
2017-07-17T22:28:13.379Z,19.65
2017-07-17T22:29:13.380Z,19.63
2017-07-17T22:30:13.401Z,19.62
2017-07-17T22:31:13.387Z,19.62
2017-07-17T22:32:13.386Z,19.62
2017-07-17T22:33:13.401Z,19.62
2017-07-17T22:34:13.397Z,19.58
2017-07-17T22:35:13.397Z,19.58
2017-07-17T22:36:13.402Z,19.57
2017-07-17T22:37:13.424Z,19.58
2017-07-17T22:38:13.410Z,19.57
2017-07-17T22:39:13.408Z,19.54
2017-07-17T22:40:13.411Z,19.53
2017-07-17T22:41:13.414Z,19.53
2017-07-17T22:42:13.416Z,19.55
2017-07-17T22:43:13.418Z,19.54
2017-07-17T22:44:13.422Z,19.54
2017-07-17T22:45:13.423Z,19.53
2017-07-17T22:46:13.429Z,19.51
2017-07-17T22:47:13.436Z,19.48
2017-07-17T22:48:13.445Z,19.46
2017-07-17T22:49:13.439Z,19.45
2017-07-17T22:50:13.440Z,19.45
2017-07-17T22:51:13.447Z,19.44
2017-07-17T22:52:13.443Z,19.42
2017-07-17T22:53:13.448Z,19.38
2017-07-17T22:54:13.453Z,19.35
2017-07-17T22:55:13.455Z,19.28
2017-07-17T22:56:13.462Z,19.25
2017-07-17T22:57:13.460Z,19.23
2017-07-17T22:58:13.464Z,19.22
2017-07-17T22:59:13.462Z,19.21
2017-07-17T23:00:13.478Z,19.20
2017-07-17T23:01:13.471Z,19.16
2017-07-17T23:02:13.472Z,19.13
2017-07-17T23:03:13.476Z,19.12
2017-07-17T23:04:13.479Z,19.09
2017-07-17T23:05:13.483Z,19.05
2017-07-17T23:06:13.486Z,19.02
2017-07-17T23:07:13.490Z,19.04
2017-07-17T23:08:13.491Z,19.04
2017-07-17T23:09:13.500Z,19.01
2017-07-17T23:10:13.499Z,19.00
2017-07-17T23:11:13.499Z,18.96
2017-07-17T23:12:13.503Z,18.95
2017-07-17T23:13:13.509Z,18.91
2017-07-17T23:14:13.508Z,18.89
2017-07-17T23:15:13.514Z,18.87
2017-07-17T23:16:13.515Z,18.88
2017-07-17T23:17:13.517Z,18.87
2017-07-17T23:18:13.520Z,18.80
2017-07-17T23:19:13.526Z,18.77
2017-07-17T23:20:13.526Z,18.77
2017-07-17T23:21:13.526Z,18.75
2017-07-17T23:22:13.534Z,18.73
2017-07-17T23:23:13.590Z,18.72
2017-07-17T23:24:13.541Z,18.73
2017-07-17T23:25:13.539Z,18.72
2017-07-17T23:26:13.543Z,18.72
2017-07-17T23:27:13.543Z,18.72
2017-07-17T23:28:13.560Z,18.75
2017-07-17T23:29:13.551Z,18.77
2017-07-17T23:30:13.558Z,18.79
2017-07-17T23:31:13.554Z,18.79
2017-07-17T23:32:13.559Z,18.80
2017-07-17T23:33:13.560Z,18.82
2017-07-17T23:34:13.566Z,18.83
2017-07-17T23:35:13.567Z,18.86
2017-07-17T23:36:13.574Z,18.87
2017-07-17T23:37:13.580Z,18.87
2017-07-17T23:38:13.619Z,18.90
2017-07-17T23:39:13.578Z,18.89
2017-07-17T23:40:13.586Z,18.89
2017-07-17T23:41:13.584Z,18.87
2017-07-17T23:42:13.609Z,18.83
2017-07-17T23:43:13.647Z,18.80
2017-07-17T23:44:13.592Z,18.79
2017-07-17T23:45:13.600Z,18.78
2017-07-17T23:46:13.596Z,18.77
2017-07-17T23:47:13.602Z,18.77
2017-07-17T23:48:13.619Z,18.78
2017-07-17T23:49:13.613Z,18.80
2017-07-17T23:50:13.617Z,18.82
2017-07-17T23:51:13.696Z,18.85
2017-07-17T23:52:13.686Z,18.84
2017-07-17T23:53:13.629Z,18.84
2017-07-17T23:54:13.622Z,18.85
2017-07-17T23:55:13.623Z,18.87
2017-07-17T23:56:13.630Z,18.88
2017-07-17T23:57:13.650Z,18.88
2017-07-17T23:58:13.693Z,18.88
2017-07-17T23:59:13.635Z,18.91
